Time;durP1;ratioP1;P1;durP2;ratioP2;P2;SDS_P1;SDS_P2;PMS_P1;PMS_P2;Temp;Humidity;BMP_temperature;BMP_pressure;BME280_temperature;BME280_humidity;BME280_pressure;Samples;Min_cycle;Max_cycle;Signal;HPM_P1;HPM_P2
2022/06/06 00:00:08;;;;;;;0.80;0.80;;;14.70;98.80;;;;;;6287955;28;20295;-68
2022/06/06 00:03:23;;;;;;;0.80;0.80;;;14.60;98.90;;;;;;6287848;28;20291;-68
2022/06/06 00:06:28;;;;;;;0.90;0.90;;;14.60;98.80;;;;;;6288212;28;20271;-68
2022/06/06 00:09:33;;;;;;;0.80;0.80;;;14.70;98.80;;;;;;6287647;28;20469;-68
2022/06/06 00:12:38;;;;;;;0.80;0.80;;;14.60;98.90;;;;;;6287770;28;20295;-68
2022/06/06 00:15:44;;;;;;;0.80;0.80;;;14.50;98.80;;;;;;6288383;28;20271;-68
2022/06/06 00:18:50;;;;;;;1.92;0.85;;;14.50;99.10;;;;;;6287909;28;20311;-68
2022/06/06 00:21:56;;;;;;;0.63;0.63;;;14.50;99.00;;;;;;6287306;28;20271;-68
2022/06/06 00:25:01;;;;;;;0.70;0.70;;;14.50;98.90;;;;;;6287907;28;20299;-68
2022/06/06 00:28:06;;;;;;;0.65;0.60;;;14.40;98.90;;;;;;6287026;28;20299;-68
2022/06/06 00:34:49;;;;;;;0.70;0.70;;;14.40;99.20;;;;;;6287191;28;20299;-68
2022/06/06 00:37:56;;;;;;;0.88;0.88;;;14.20;99.40;;;;;;6286752;28;20299;-68
2022/06/06 00:41:00;;;;;;;0.75;0.75;;;14.20;99.30;;;;;;6287659;28;20271;-68
2022/06/06 00:44:08;;;;;;;0.80;0.80;;;14.30;99.20;;;;;;6287343;28;20294;-67
2022/06/06 00:47:25;;;;;;;0.90;0.90;;;14.30;99.10;;;;;;6286592;28;20419;-68
2022/06/06 00:50:36;;;;;;;0.85;0.85;;;14.30;99.00;;;;;;6287323;28;20575;-67
2022/06/06 00:53:45;;;;;;;0.80;0.80;;;14.30;98.90;;;;;;6286631;28;20298;-68
2022/06/06 00:56:54;;;;;;;0.80;0.80;;;14.40;98.70;;;;;;6286847;28;20287;-68
2022/06/06 01:00:04;;;;;;;0.80;0.80;;;14.30;98.70;;;;;;6286716;28;20290;-68
2022/06/06 01:03:23;;;;;;;1.13;0.70;;;14.20;98.60;;;;;;6285661;28;20295;-67
2022/06/06 01:06:30;;;;;;;0.80;0.80;;;14.20;98.20;;;;;;6287136;28;20558;-68
2022/06/06 01:09:37;;;;;;;0.90;0.90;;;14.20;97.80;;;;;;6286629;28;20315;-66
2022/06/06 01:12:43;;;;;;;0.60;0.60;;;14.20;97.60;;;;;;6286473;28;20595;-66
2022/06/06 01:16:07;;;;;;;0.85;0.80;;;14.20;97.50;;;;;;6286598;28;20279;-66
2022/06/06 01:19:48;;;;;;;0.75;0.75;;;14.20;97.50;;;;;;6284710;28;20618;-66
2022/06/06 01:23:29;;;;;;;1.00;1.00;;;14.10;97.50;;;;;;6285549;28;20299;-66
2022/06/06 01:26:53;;;;;;;0.70;0.70;;;14.10;97.40;;;;;;6285892;28;20267;-67
2022/06/06 01:30:04;;;;;;;0.80;0.80;;;14.00;97.60;;;;;;6286128;28;20484;-67
2022/06/06 01:33:16;;;;;;;0.77;0.77;;;14.10;97.20;;;;;;6285412;28;20486;-67
2022/06/06 01:36:22;;;;;;;0.90;0.90;;;14.00;97.40;;;;;;6286077;28;20271;-67
2022/06/06 01:39:29;;;;;;;0.98;0.98;;;13.90;97.40;;;;;;6285563;28;20302;-67
2022/06/06 01:42:40;;;;;;;0.80;0.80;;;13.90;97.60;;;;;;6285453;28;20291;-67
2022/06/06 01:45:50;;;;;;;0.60;0.60;;;13.90;97.40;;;;;;6286002;28;20574;-67
2022/06/06 01:48:56;;;;;;;0.75;0.75;;;13.90;97.40;;;;;;6285810;28;20475;-67
2022/06/06 01:52:04;;;;;;;0.80;0.80;;;13.90;97.40;;;;;;6286353;28;20593;-67
2022/06/06 01:55:09;;;;;;;0.80;0.80;;;13.90;97.90;;;;;;6284816;28;20287;-67
2022/06/06 01:58:20;;;;;;;1.00;1.00;;;13.80;98.30;;;;;;6285104;28;20326;-67
2022/06/06 02:01:26;;;;;;;0.80;0.80;;;13.80;98.20;;;;;;6286026;28;20267;-67
2022/06/06 02:04:32;;;;;;;0.80;0.80;;;13.90;98.30;;;;;;6285785;28;20290;-67
2022/06/06 02:07:37;;;;;;;0.98;0.80;;;13.80;98.30;;;;;;6285008;28;20294;-67
2022/06/06 02:10:42;;;;;;;1.00;1.00;;;13.80;98.30;;;;;;6285466;28;20353;-67
2022/06/06 02:13:48;;;;;;;0.75;0.75;;;13.80;98.10;;;;;;6285003;28;20298;-67
2022/06/06 02:16:54;;;;;;;0.90;0.90;;;13.90;98.00;;;;;;6268104;28;20448;-67
2022/06/06 02:20:04;;;;;;;0.90;0.90;;;13.90;97.90;;;;;;6284653;28;20299;-67
2022/06/06 02:23:12;;;;;;;0.98;0.98;;;13.90;97.80;;;;;;6284769;28;20298;-67
2022/06/06 02:26:17;;;;;;;0.90;0.90;;;13.80;98.30;;;;;;6285869;28;20563;-67
2022/06/06 02:29:22;;;;;;;2.55;1.00;;;13.80;98.40;;;;;;6286159;28;20294;-67
2022/06/06 02:32:28;;;;;;;0.85;0.85;;;13.80;98.50;;;;;;6290325;28;20291;-67
2022/06/06 02:35:39;;;;;;;1.25;1.00;;;13.80;98.60;;;;;;6289980;28;20456;-68
2022/06/06 02:38:44;;;;;;;0.90;0.90;;;13.90;98.50;;;;;;6289749;28;20303;-67
2022/06/06 02:41:49;;;;;;;0.77;0.77;;;13.90;98.30;;;;;;6289940;28;20456;-67
2022/06/06 02:44:54;;;;;;;0.80;0.80;;;13.90;98.00;;;;;;6289882;28;20473;-67
2022/06/06 02:48:00;;;;;;;1.00;0.95;;;14.00;98.00;;;;;;6289451;28;20298;-67
2022/06/06 02:51:06;;;;;;;1.00;1.00;;;13.90;98.10;;;;;;6290183;28;20452;-67
2022/06/06 02:54:12;;;;;;;1.00;1.00;;;14.00;97.80;;;;;;6289786;28;20299;-67
2022/06/06 02:57:17;;;;;;;0.85;0.85;;;13.90;97.90;;;;;;6288848;28;20271;-67
2022/06/06 03:00:27;;;;;;;0.93;0.93;;;14.00;97.70;;;;;;6289232;28;20311;-67
2022/06/06 03:03:33;;;;;;;1.70;0.85;;;13.90;97.90;;;;;;6287565;28;20307;-67
2022/06/06 03:06:50;;;;;;;0.90;0.90;;;13.90;97.30;;;;;;6289821;28;20405;-67
2022/06/06 03:10:09;;;;;;;0.80;0.80;;;13.80;97.30;;;;;;6289360;28;20299;-67
2022/06/06 03:13:32;;;;;;;1.13;0.80;;;13.80;97.40;;;;;;6289093;28;20295;-67
2022/06/06 03:20:48;;;;;;;0.80;0.80;;;13.90;97.20;;;;;;6287672;28;20294;-67
2022/06/06 03:24:09;;;;;;;0.93;0.93;;;13.80;97.30;;;;;;6288311;28;20302;-67
2022/06/06 03:27:29;;;;;;;0.90;0.80;;;13.80;97.30;;;;;;6288129;28;20276;-67
2022/06/06 03:30:43;;;;;;;1.00;1.00;;;13.90;97.10;;;;;;6288964;28;20280;-67
2022/06/06 03:33:59;;;;;;;0.82;0.82;;;14.00;97.10;;;;;;6288165;28;20303;-67
2022/06/06 03:37:26;;;;;;;1.85;1.00;;;14.10;97.00;;;;;;6288568;28;20268;-67
2022/06/06 03:40:41;;;;;;;1.00;1.00;;;14.10;96.90;;;;;;6287963;28;20291;-67
2022/06/06 03:43:54;;;;;;;3.17;0.90;;;14.10;96.80;;;;;;6288189;28;20295;-67
2022/06/06 03:47:06;;;;;;;1.67;1.05;;;14.20;96.20;;;;;;6287554;28;20276;-67
2022/06/06 03:50:26;;;;;;;1.05;1.05;;;14.20;96.50;;;;;;6288720;28;20275;-67
2022/06/06 03:53:40;;;;;;;0.90;0.90;;;14.30;96.10;;;;;;6287878;28;20295;-67
2022/06/06 03:57:00;;;;;;;0.90;0.90;;;14.30;96.10;;;;;;6288687;28;20276;-67
2022/06/06 04:00:12;;;;;;;2.25;0.90;;;14.40;96.00;;;;;;6287477;28;20291;-67
2022/06/06 04:03:20;;;;;;;1.30;1.30;;;14.40;95.80;;;;;;6287459;28;20282;-67
2022/06/06 04:06:28;;;;;;;1.02;0.90;;;14.40;95.70;;;;;;6288448;28;20270;-67
2022/06/06 04:09:35;;;;;;;0.82;0.82;;;14.40;95.60;;;;;;6287898;28;20298;-67
2022/06/06 04:12:59;;;;;;;1.35;1.20;;;14.40;95.60;;;;;;6287392;28;20290;-67
2022/06/06 04:16:18;;;;;;;2.20;1.17;;;14.50;95.40;;;;;;6288353;28;20275;-67
2022/06/06 04:19:34;;;;;;;1.60;1.60;;;14.60;94.90;;;;;;6287634;28;20488;-67
2022/06/06 04:22:57;;;;;;;1.02;1.02;;;14.50;95.00;;;;;;6286907;28;20291;-67
2022/06/06 04:26:12;;;;;;;1.00;1.00;;;14.50;94.20;;;;;;6287591;28;20275;-67
2022/06/06 04:29:28;;;;;;;1.00;1.00;;;14.50;94.00;;;;;;6287472;28;20458;-67
2022/06/06 04:32:47;;;;;;;0.90;0.90;;;14.60;94.20;;;;;;6287775;28;20291;-67
2022/06/06 04:36:04;;;;;;;0.90;0.90;;;14.50;93.50;;;;;;6287639;28;20271;-67
2022/06/06 04:39:15;;;;;;;2.30;1.00;;;14.60;93.80;;;;;;6286876;28;20299;-67
2022/06/06 04:42:30;;;;;;;1.13;0.90;;;14.70;93.80;;;;;;6287006;28;20295;-67
2022/06/06 04:45:41;;;;;;;0.80;0.80;;;14.80;93.40;;;;;;6287012;28;20275;-67
2022/06/06 04:48:46;;;;;;;0.90;0.90;;;14.80;93.10;;;;;;6287026;28;20295;-67
2022/06/06 04:51:51;;;;;;;0.93;0.93;;;14.80;92.80;;;;;;6287272;28;20279;-67
2022/06/06 04:54:57;;;;;;;2.15;1.00;;;14.70;93.10;;;;;;6286174;28;20298;-67
2022/06/06 04:58:06;;;;;;;1.27;1.27;;;14.80;92.80;;;;;;6286566;28;20477;-67
2022/06/06 05:01:12;;;;;;;2.80;1.02;;;14.70;92.20;;;;;;6286811;28;20286;-67
2022/06/06 05:04:17;;;;;;;1.15;1.00;;;14.80;91.70;;;;;;6287118;28;20446;-67
2022/06/06 05:07:49;;;;;;;0.82;0.82;;;14.70;91.50;;;;;;6286388;28;20291;-68
2022/06/06 05:11:09;;;;;;;1.00;1.00;;;14.70;91.30;;;;;;6286879;28;20270;-67
2022/06/06 05:14:37;;;;;;;5.88;1.05;;;14.70;91.50;;;;;;6286440;28;20379;-67
2022/06/06 05:18:09;;;;;;;3.20;1.05;;;14.80;91.60;;;;;;6286353;28;20586;-67
2022/06/06 05:21:31;;;;;;;1.33;0.70;;;14.90;91.00;;;;;;6287002;28;20290;-68
2022/06/06 05:25:10;;;;;;;3.70;1.27;;;15.00;91.20;;;;;;6285757;28;20307;-67
2022/06/06 05:28:49;;;;;;;3.20;1.00;;;15.10;90.80;;;;;;6279189;28;20299;-68
2022/06/06 05:32:11;;;;;;;1.92;1.00;;;15.10;90.10;;;;;;6286874;28;20270;-67
2022/06/06 05:35:30;;;;;;;1.70;0.93;;;15.10;90.30;;;;;;6285615;28;20477;-68
2022/06/06 05:39:13;;;;;;;1.00;1.00;;;15.10;90.70;;;;;;6285952;28;20295;-67
2022/06/06 05:42:34;;;;;;;1.00;1.00;;;15.00;90.40;;;;;;6285744;28;20299;-67
2022/06/06 05:45:49;;;;;;;0.90;0.90;;;15.10;90.10;;;;;;6286404;28;20275;-66
2022/06/06 05:49:16;;;;;;;1.48;0.90;;;15.10;90.20;;;;;;6285795;28;20568;-67
2022/06/06 05:52:36;;;;;;;0.90;0.90;;;15.10;89.50;;;;;;6285407;28;20488;-66
2022/06/06 05:56:14;;;;;;;1.08;0.80;;;15.10;88.30;;;;;;6286263;28;20271;-66
2022/06/06 05:59:40;;;;;;;0.90;0.90;;;15.10;89.00;;;;;;6285949;28;20612;-67
2022/06/06 06:03:26;;;;;;;1.10;1.00;;;15.20;89.90;;;;;;6285453;28;20291;-66
2022/06/06 06:06:38;;;;;;;1.17;1.08;;;15.40;89.70;;;;;;6285441;28;20558;-67
2022/06/06 06:09:57;;;;;;;1.50;1.10;;;15.50;90.10;;;;;;6285310;28;20300;-67
2022/06/06 06:13:37;;;;;;;0.90;0.90;;;15.60;89.10;;;;;;6285194;28;20303;-67
2022/06/06 06:16:46;;;;;;;1.60;0.90;;;15.50;89.40;;;;;;6279242;28;20468;-67
2022/06/06 06:20:02;;;;;;;1.00;1.00;;;15.60;89.20;;;;;;6285281;28;20303;-67
2022/06/06 06:23:12;;;;;;;0.80;0.80;;;15.60;88.80;;;;;;6284951;28;20300;-66
2022/06/06 06:26:17;;;;;;;2.15;0.95;;;15.70;88.70;;;;;;6285495;28;20558;-67
2022/06/06 06:29:22;;;;;;;0.85;0.70;;;15.80;87.60;;;;;;6284999;28;20602;-67
2022/06/06 06:32:49;;;;;;;1.50;0.90;;;15.80;87.40;;;;;;6284990;28;20491;-67
2022/06/06 06:36:06;;;;;;;0.82;0.82;;;15.80;85.50;;;;;;6285658;28;20267;-67
2022/06/06 06:39:37;;;;;;;2.53;0.90;;;16.00;84.40;;;;;;6285143;28;20299;-67
2022/06/06 06:43:08;;;;;;;1.00;1.00;;;16.20;85.90;;;;;;6285222;28;20295;-67
2022/06/06 06:46:18;;;;;;;2.65;1.00;;;16.30;85.90;;;;;;6285033;28;20272;-67
2022/06/06 06:49:36;;;;;;;5.63;0.80;;;16.30;85.60;;;;;;6284768;28;20295;-68
2022/06/06 06:53:03;;;;;;;2.50;0.90;;;16.30;83.70;;;;;;6285121;28;20291;-68
2022/06/06 06:56:22;;;;;;;2.17;1.02;;;16.40;81.70;;;;;;6285428;28;20579;-67
2022/06/06 06:59:38;;;;;;;1.00;1.00;;;16.50;82.00;;;;;;6284379;28;20315;-68
2022/06/06 07:10:15;;;;;;;1.50;0.70;;;16.90;73.80;;;;;;6283538;28;20284;-68
2022/06/06 07:13:40;;;;;;;0.73;0.70;;;16.90;68.70;;;;;;6284868;28;20298;-67
2022/06/06 07:16:46;;;;;;;1.10;0.90;;;17.00;65.10;;;;;;6287073;28;20268;-68
2022/06/06 07:19:59;;;;;;;3.88;0.80;;;16.90;61.60;;;;;;6289336;28;20311;-68
2022/06/06 07:23:09;;;;;;;2.90;0.88;;;17.00;61.60;;;;;;6288938;28;20303;-68
2022/06/06 07:26:15;;;;;;;1.15;1.05;;;17.00;60.60;;;;;;6289570;28;20272;-68
2022/06/06 07:29:22;;;;;;;4.53;1.10;;;17.10;59.80;;;;;;6288778;28;20295;-68
2022/06/06 07:32:47;;;;;;;5.25;1.00;;;17.10;60.80;;;;;;6288708;28;20295;-67
2022/06/06 07:36:00;;;;;;;5.03;1.38;;;17.30;60.70;;;;;;6289122;28;20271;-68
2022/06/06 07:39:17;;;;;;;1.38;1.20;;;17.20;60.00;;;;;;6288368;28;20294;-68
2022/06/06 07:42:43;;;;;;;1.85;1.30;;;17.20;62.50;;;;;;6288061;28;20299;-68
2022/06/06 07:45:52;;;;;;;1.38;0.93;;;17.20;60.90;;;;;;6288894;28;20267;-67
2022/06/06 07:49:04;;;;;;;2.25;0.98;;;17.30;61.70;;;;;;6288153;28;20290;-67
2022/06/06 07:52:26;;;;;;;0.82;0.82;;;17.40;60.30;;;;;;6288155;28;20276;-67
2022/06/06 07:55:35;;;;;;;0.90;0.90;;;17.50;60.20;;;;;;6288250;28;20271;-68
2022/06/06 07:58:51;;;;;;;1.75;0.82;;;17.70;60.60;;;;;;6287897;28;20295;-68
2022/06/06 08:02:19;;;;;;;1.00;1.00;;;17.90;59.30;;;;;;6287989;28;20551;-68
2022/06/06 08:06:18;;;;;;;1.23;1.02;;;18.00;58.80;;;;;;6263416;28;20279;-68
2022/06/06 08:09:42;;;;;;;0.90;0.90;;;18.20;59.50;;;;;;6287973;28;20302;-68
2022/06/06 08:13:10;;;;;;;1.02;0.90;;;18.30;58.20;;;;;;6261721;28;20295;-68
2022/06/06 08:16:24;;;;;;;5.15;1.35;;;18.40;55.70;;;;;;6263687;28;20271;-68
2022/06/06 08:19:55;;;;;;;1.58;1.20;;;18.30;55.00;;;;;;6262647;28;20304;-67
2022/06/06 08:23:02;;;;;;;4.53;1.00;;;18.30;53.80;;;;;;6262606;28;20307;-67
2022/06/06 08:26:09;;;;;;;1.60;0.80;;;18.30;53.40;;;;;;6263326;28;20271;-67
2022/06/06 08:29:14;;;;;;;0.80;0.80;;;18.10;53.90;;;;;;6262403;28;20424;-67
2022/06/06 08:32:19;;;;;;;1.95;0.80;;;17.90;54.40;;;;;;6262409;28;20316;-67
2022/06/06 08:35:34;;;;;;;0.80;0.80;;;17.90;55.90;;;;;;6262576;28;20272;-67
2022/06/06 08:38:50;;;;;;;0.90;0.90;;;18.00;54.90;;;;;;6262584;28;20364;-67
2022/06/06 08:42:28;;;;;;;3.67;1.02;;;18.00;54.30;;;;;;6262633;28;20272;-67
2022/06/06 08:45:51;;;;;;;2.67;0.90;;;18.00;55.40;;;;;;6262034;28;20280;-67
2022/06/06 08:49:10;;;;;;;0.60;0.60;;;18.00;56.30;;;;;;6262129;28;20296;-67
2022/06/06 08:52:55;;;;;;;1.75;0.85;;;17.90;55.60;;;;;;6262340;28;20280;-67
2022/06/06 08:56:44;;;;;;;1.15;1.08;;;17.90;56.80;;;;;;6262724;28;20272;-69
2022/06/06 09:00:18;;;;;;;0.70;0.70;;;17.90;56.20;;;;;;6262097;28;20296;-68
2022/06/06 09:04:02;;;;;;;0.98;0.98;;;17.90;56.70;;;;;;6261654;28;20295;-70
2022/06/06 09:07:54;;;;;;;1.75;0.82;;;18.00;56.90;;;;;;6261645;28;20272;-68
2022/06/06 09:12:12;;;;;;;1.30;1.20;;;18.10;56.70;;;;;;6275314;28;20264;-68
2022/06/06 09:15:59;;;;;;;2.45;0.70;;;18.10;56.30;;;;;;6220286;28;20280;-68
2022/06/06 09:19:49;;;;;;;1.98;1.10;;;18.10;56.70;;;;;;6234329;28;20324;-68
2022/06/06 09:23:48;;;;;;;1.13;1.00;;;18.10;56.40;;;;;;6234197;28;20439;-66
2022/06/06 09:27:36;;;;;;;0.90;0.90;;;17.90;55.30;;;;;;6228325;28;20291;-66
2022/06/06 09:31:10;;;;;;;2.92;1.30;;;17.80;56.10;;;;;;6210411;28;20329;-67
2022/06/06 09:35:08;;;;;;;10.27;1.20;;;17.80;56.60;;;;;;6210823;28;20296;-68
2022/06/06 09:38:28;;;;;;;1.17;1.00;;;17.90;55.30;;;;;;6233504;28;20297;-67
2022/06/06 09:41:40;;;;;;;2.70;0.93;;;17.90;55.10;;;;;;6234520;28;20288;-68
2022/06/06 09:45:18;;;;;;;0.90;0.90;;;17.80;57.20;;;;;;6244160;28;20310;-67
2022/06/06 09:49:02;;;;;;;1.05;0.88;;;17.80;57.90;;;;;;6285694;28;20307;-67
2022/06/06 09:52:49;;;;;;;1.15;1.10;;;17.70;59.30;;;;;;6285400;28;20275;-66
2022/06/06 10:00:17;;;;;;;1.02;1.00;;;17.70;58.30;;;;;;6285331;28;20294;-66
2022/06/06 10:04:04;;;;;;;0.90;0.90;;;17.70;58.80;;;;;;6285097;28;20295;-67
2022/06/06 10:07:59;;;;;;;4.25;1.15;;;17.80;58.10;;;;;;6285393;28;20271;-67
2022/06/06 10:11:44;;;;;;;0.98;0.98;;;17.80;57.10;;;;;;6286098;28;20263;-66
2022/06/06 10:15:23;;;;;;;1.13;1.00;;;17.80;57.90;;;;;;6285608;28;20307;-67
2022/06/06 10:18:54;;;;;;;1.00;1.00;;;17.90;59.20;;;;;;6284564;28;20310;-67
2022/06/06 10:22:44;;;;;;;1.10;1.05;;;17.90;58.30;;;;;;6285049;28;20279;-67
2022/06/06 10:26:31;;;;;;;3.50;1.00;;;17.90;54.70;;;;;;6275897;28;20298;-66
2022/06/06 10:30:11;;;;;;;5.65;1.00;;;17.90;53.00;;;;;;6284840;28;20300;-66
2022/06/06 10:33:59;;;;;;;1.98;1.05;;;18.00;51.20;;;;;;6284670;28;20298;-66
2022/06/06 10:37:33;;;;;;;2.85;1.17;;;18.10;52.50;;;;;;6280267;28;20275;-67
2022/06/06 10:41:06;;;;;;;1.90;1.00;;;18.30;51.40;;;;;;6285172;28;20287;-66
2022/06/06 10:44:50;;;;;;;2.08;1.00;;;18.30;49.00;;;;;;6284707;28;20590;-66
2022/06/06 10:48:42;;;;;;;0.90;0.90;;;18.20;49.30;;;;;;6284598;28;20308;-66
2022/06/06 10:52:41;;;;;;;0.90;0.90;;;18.10;48.80;;;;;;6287867;28;20267;-67
2022/06/06 10:56:25;;;;;;;0.90;0.90;;;18.20;49.70;;;;;;6289460;28;20278;-66
2022/06/06 10:59:57;;;;;;;3.75;1.60;;;18.20;49.20;;;;;;6289603;28;20291;-66
2022/06/06 11:03:26;;;;;;;1.35;0.90;;;18.40;51.20;;;;;;6288902;28;20296;-66
2022/06/06 11:07:06;;;;;;;1.58;0.82;;;18.20;49.60;;;;;;6289681;28;20276;-66
2022/06/06 11:10:33;;;;;;;2.25;1.10;;;18.20;49.10;;;;;;6288416;28;20570;-66
2022/06/06 11:13:50;;;;;;;0.90;0.90;;;18.00;47.40;;;;;;6289333;28;20295;-66
2022/06/06 11:17:40;;;;;;;0.88;0.88;;;18.00;47.00;;;;;;6289036;28;20276;-65
2022/06/06 11:21:29;;;;;;;1.00;0.90;;;18.00;49.60;;;;;;6288543;28;20275;-67
2022/06/06 11:24:40;;;;;;;2.60;0.90;;;18.00;45.60;;;;;;6288935;28;20469;-66
2022/06/06 11:28:19;;;;;;;0.95;0.80;;;17.70;45.50;;;;;;6288703;28;20408;-66
2022/06/06 11:31:48;;;;;;;2.35;0.90;;;17.70;46.80;;;;;;6288718;28;20458;-66
2022/06/06 11:35:29;;;;;;;2.50;0.88;;;17.90;46.80;;;;;;6270446;28;20485;-66
2022/06/06 11:39:17;;;;;;;3.63;0.95;;;17.90;48.00;;;;;;6288394;28;20295;-66
2022/06/06 11:42:45;;;;;;;2.63;0.90;;;18.10;48.10;;;;;;6288507;28;20593;-65
2022/06/06 11:46:07;;;;;;;0.88;0.88;;;18.20;48.20;;;;;;6288836;28;20482;-65
2022/06/06 11:49:55;;;;;;;0.80;0.80;;;18.20;48.50;;;;;;6288260;28;20487;-65
2022/06/06 11:53:57;;;;;;;0.90;0.90;;;18.40;49.60;;;;;;6288570;28;20295;-66
2022/06/06 11:57:32;;;;;;;1.23;1.02;;;18.70;49.80;;;;;;6264521;28;20275;-66
2022/06/06 12:00:51;;;;;;;0.90;0.90;;;18.50;47.20;;;;;;6285270;28;20275;-65
2022/06/06 12:04:19;;;;;;;0.80;0.80;;;18.40;48.90;;;;;;6287239;28;20295;-65
2022/06/06 12:07:55;;;;;;;0.90;0.90;;;18.70;49.80;;;;;;6287908;28;20287;-66
2022/06/06 12:11:52;;;;;;;1.10;0.98;;;18.80;51.50;;;;;;6287943;28;20263;-66
2022/06/06 12:15:38;;;;;;;0.80;0.80;;;18.90;53.10;;;;;;6286360;28;20295;-66
2022/06/06 12:19:20;;;;;;;1.48;1.10;;;19.00;51.90;;;;;;6287333;28;20303;-67
2022/06/06 12:22:49;;;;;;;1.17;1.17;;;19.00;50.60;;;;;;6276707;28;20291;-67
2022/06/06 12:26:06;;;;;;;1.00;1.00;;;19.00;51.90;;;;;;6288423;28;20295;-67
2022/06/06 12:29:55;;;;;;;1.40;1.40;;;19.00;51.00;;;;;;6286814;28;20484;-67
2022/06/06 12:33:03;;;;;;;3.97;1.20;;;18.90;52.00;;;;;;6287362;28;20294;-67
2022/06/06 12:36:15;;;;;;;1.83;1.38;;;18.80;52.10;;;;;;6286869;28;20270;-67
2022/06/06 12:39:38;;;;;;;2.40;0.82;;;18.80;53.60;;;;;;6287097;28;20298;-66
2022/06/06 12:42:51;;;;;;;1.98;0.80;;;18.80;52.30;;;;;;6286752;28;20322;-67
2022/06/06 12:46:23;;;;;;;0.80;0.80;;;18.70;52.90;;;;;;6287363;28;20569;-67
2022/06/06 12:49:55;;;;;;;1.30;1.20;;;18.90;53.40;;;;;;6286771;28;20449;-67
2022/06/06 12:53:30;;;;;;;2.33;0.85;;;18.90;52.90;;;;;;6286600;28;20611;-65
2022/06/06 12:56:52;;;;;;;1.10;1.10;;;18.80;51.80;;;;;;6287022;28;20275;-65
2022/06/06 13:00:05;;;;;;;0.90;0.90;;;19.00;52.20;;;;;;6286389;28;20291;-65
2022/06/06 13:03:19;;;;;;;1.02;0.90;;;18.80;52.30;;;;;;6286380;28;20291;-66
2022/06/06 13:06:38;;;;;;;0.85;0.85;;;18.70;52.10;;;;;;6286140;28;20295;-66
2022/06/06 13:10:04;;;;;;;1.05;1.05;;;18.80;52.30;;;;;;6286022;28;20597;-66
2022/06/06 13:13:37;;;;;;;3.92;0.80;;;19.00;51.20;;;;;;6285521;28;20227;-66
2022/06/06 13:16:56;;;;;;;1.27;1.17;;;19.00;51.00;;;;;;6286806;28;20279;-66
2022/06/06 13:20:18;;;;;;;0.88;0.88;;;19.10;50.60;;;;;;6285394;28;20348;-66
2022/06/06 13:23:58;;;;;;;1.17;1.17;;;19.00;50.00;;;;;;6285841;28;20594;-66
2022/06/06 13:27:22;;;;;;;0.80;0.80;;;19.10;48.90;;;;;;6285549;28;20291;-66
2022/06/06 13:30:34;;;;;;;0.90;0.90;;;19.10;48.00;;;;;;6286004;28;20271;-65
2022/06/06 13:34:22;;;;;;;1.08;1.00;;;19.10;48.70;;;;;;6285432;28;20298;-66
2022/06/06 13:37:42;;;;;;;6.30;3.13;;;19.10;48.50;;;;;;6285274;28;20294;-66
2022/06/06 13:41:04;;;;;;;1.30;1.30;;;19.40;49.90;;;;;;6285701;28;20267;-66
2022/06/06 13:44:30;;;;;;;1.00;1.00;;;19.30;49.70;;;;;;6285310;28;20295;-65
2022/06/06 13:48:30;;;;;;;1.20;1.10;;;19.60;49.40;;;;;;6285170;28;20302;-65
2022/06/06 13:51:51;;;;;;;1.38;1.38;;;20.80;47.70;;;;;;6285800;28;20271;-66
2022/06/06 13:54:56;;;;;;;1.35;1.08;;;21.60;45.80;;;;;;6285521;28;20307;-66
2022/06/06 13:58:37;;;;;;;1.00;1.00;;;21.90;43.70;;;;;;6285305;28;20314;-65
2022/06/06 14:01:49;;;;;;;0.88;0.88;;;21.10;45.10;;;;;;6284118;28;20275;-66
2022/06/06 14:05:31;;;;;;;2.38;1.20;;;21.20;45.60;;;;;;6285246;28;20311;-65
2022/06/06 14:08:51;;;;;;;1.00;1.00;;;21.70;45.10;;;;;;6284882;28;20298;-66
2022/06/06 14:12:21;;;;;;;1.88;1.10;;;22.10;44.00;;;;;;6285376;28;20263;-65
2022/06/06 14:15:27;;;;;;;1.30;1.20;;;21.90;43.30;;;;;;6284414;28;20274;-66
2022/06/06 14:18:34;;;;;;;2.92;1.00;;;21.20;44.80;;;;;;6285196;28;20323;-65
2022/06/06 14:21:48;;;;;;;1.67;0.80;;;20.70;44.90;;;;;;6285605;28;20267;-66
2022/06/06 14:24:55;;;;;;;0.95;0.95;;;20.60;43.00;;;;;;6285695;28;20299;-66
2022/06/06 14:28:19;;;;;;;0.90;0.90;;;20.60;45.70;;;;;;6290381;28;20299;-65
2022/06/06 14:31:34;;;;;;;0.73;0.73;;;20.30;40.30;;;;;;6290427;28;20271;-66
2022/06/06 14:34:44;;;;;;;3.97;1.05;;;20.20;38.90;;;;;;6290171;28;20593;-66
2022/06/06 14:37:50;;;;;;;0.90;0.90;;;20.30;40.80;;;;;;6289684;28;20546;-66
2022/06/06 14:41:00;;;;;;;1.80;0.80;;;20.10;40.10;;;;;;6290106;28;20275;-65
2022/06/06 14:44:05;;;;;;;0.88;0.88;;;20.30;39.00;;;;;;6289726;28;20295;-65
2022/06/06 14:47:18;;;;;;;2.35;0.60;;;20.40;38.40;;;;;;6289606;28;20286;-66
2022/06/06 14:53:53;;;;;;;1.13;1.13;;;20.50;36.90;;;;;;6289699;28;20475;-66
2022/06/06 14:57:12;;;;;;;0.73;0.70;;;20.20;38.40;;;;;;6289468;28;20271;-65
2022/06/06 15:00:32;;;;;;;0.70;0.70;;;19.90;38.60;;;;;;6290012;28;20266;-66
2022/06/06 15:03:42;;;;;;;0.70;0.70;;;19.70;39.40;;;;;;6288905;28;20295;-66
2022/06/06 15:06:53;;;;;;;0.80;0.80;;;19.60;39.50;;;;;;6289341;28;20287;-66
2022/06/06 15:09:59;;;;;;;0.60;0.60;;;19.40;39.60;;;;;;6289341;28;20291;-65
2022/06/06 15:13:05;;;;;;;0.80;0.80;;;19.40;40.20;;;;;;6289043;28;20295;-66
2022/06/06 15:16:16;;;;;;;0.85;0.80;;;19.40;40.80;;;;;;6289565;28;20276;-65
2022/06/06 15:19:30;;;;;;;0.73;0.73;;;19.40;42.10;;;;;;6288627;28;20303;-65
2022/06/06 15:22:39;;;;;;;0.80;0.80;;;19.40;43.80;;;;;;6288431;28;20290;-66
2022/06/06 15:25:52;;;;;;;0.90;0.90;;;19.30;46.50;;;;;;6289005;28;20471;-66
2022/06/06 15:29:22;;;;;;;2.58;1.23;;;19.40;45.40;;;;;;6288405;28;20294;-66
2022/06/06 15:32:33;;;;;;;1.35;1.35;;;19.40;47.90;;;;;;6288551;28;20475;-65
2022/06/06 15:35:53;;;;;;;1.55;1.52;;;19.60;48.60;;;;;;6288987;28;20267;-65
2022/06/06 15:39:15;;;;;;;2.85;2.75;;;19.70;48.90;;;;;;6287699;28;20299;-66
2022/06/06 15:42:30;;;;;;;1.20;1.20;;;19.60;49.70;;;;;;6288251;28;20291;-66
2022/06/06 15:45:53;;;;;;;1.20;1.20;;;19.60;49.30;;;;;;6288547;28;20275;-65
2022/06/06 15:49:10;;;;;;;0.93;0.93;;;19.60;49.10;;;;;;6288407;28;20299;-66
2022/06/06 15:52:37;;;;;;;1.10;1.10;;;19.50;49.70;;;;;;6288655;28;20267;-66
2022/06/06 15:55:50;;;;;;;1.08;0.95;;;19.40;50.60;;;;;;6288380;28;20271;-66
2022/06/06 15:59:15;;;;;;;2.35;1.00;;;19.30;50.40;;;;;;6288042;28;20299;-65
2022/06/06 16:02:34;;;;;;;1.10;1.10;;;19.40;50.40;;;;;;6287396;28;20295;-64
2022/06/06 16:05:41;;;;;;;1.17;1.17;;;19.40;51.30;;;;;;6288475;28;20267;-64
2022/06/06 16:08:59;;;;;;;1.00;1.00;;;19.30;50.50;;;;;;6287965;28;20311;-65
2022/06/06 16:12:20;;;;;;;2.17;0.90;;;19.30;49.00;;;;;;6287130;28;20263;-65
2022/06/06 16:15:34;;;;;;;0.90;0.90;;;19.40;48.50;;;;;;6287603;28;20269;-65
2022/06/06 16:18:46;;;;;;;2.47;0.80;;;19.20;48.10;;;;;;6272147;28;20307;-66
2022/06/06 16:21:55;;;;;;;1.60;0.70;;;19.00;48.60;;;;;;6288147;28;20267;-66
2022/06/06 16:25:10;;;;;;;1.00;0.82;;;18.80;49.50;;;;;;6287237;28;20274;-65
2022/06/06 16:28:24;;;;;;;0.90;0.90;;;18.50;49.50;;;;;;6287414;28;20610;-66
2022/06/06 16:31:38;;;;;;;0.90;0.80;;;18.40;49.80;;;;;;6287855;28;20271;-66
2022/06/06 16:34:43;;;;;;;1.00;1.00;;;18.30;50.50;;;;;;6287417;28;20300;-65
2022/06/06 16:38:03;;;;;;;0.80;0.80;;;18.20;51.10;;;;;;6286921;28;20299;-66
2022/06/06 16:48:41;;;;;;;1.10;1.10;;;18.20;53.10;;;;;;6286777;28;20299;-67
2022/06/06 16:51:54;;;;;;;0.90;0.90;;;18.20;54.60;;;;;;6287271;28;20268;-67
2022/06/06 16:55:05;;;;;;;1.13;1.10;;;18.10;55.50;;;;;;6287186;28;20294;-66
2022/06/06 16:58:27;;;;;;;1.65;0.90;;;18.00;56.80;;;;;;6286394;28;20299;-66
2022/06/06 17:01:42;;;;;;;0.90;0.90;;;18.10;56.20;;;;;;6287106;28;20335;-66
2022/06/06 17:04:50;;;;;;;2.75;1.20;;;18.00;57.20;;;;;;6286569;28;20479;-66
2022/06/06 17:08:05;;;;;;;2.92;1.25;;;17.90;57.30;;;;;;6286493;28;20300;-66
2022/06/06 17:11:17;;;;;;;1.10;1.10;;;18.00;57.80;;;;;;6286497;28;20268;-67
2022/06/06 17:14:29;;;;;;;1.20;1.20;;;17.80;58.20;;;;;;6286674;28;20294;-66
2022/06/06 17:18:21;;;;;;;1.05;1.05;;;17.70;59.30;;;;;;6286320;28;20307;-66
2022/06/06 17:21:45;;;;;;;2.35;1.15;;;17.60;60.00;;;;;;6286533;28;20267;-66
2022/06/06 17:25:00;;;;;;;1.27;1.27;;;17.50;59.80;;;;;;6286284;28;20486;-66
2022/06/06 17:28:49;;;;;;;2.33;1.20;;;17.40;61.20;;;;;;6286039;28;20297;-67
2022/06/06 17:32:10;;;;;;;1.38;1.27;;;17.30;62.00;;;;;;6286842;28;20554;-67
2022/06/06 17:35:21;;;;;;;1.20;1.20;;;17.30;62.30;;;;;;6285599;28;20447;-67
2022/06/06 17:38:36;;;;;;;1.33;1.20;;;17.30;62.60;;;;;;6285719;28;20587;-67
2022/06/06 17:42:17;;;;;;;1.55;1.42;;;17.20;63.60;;;;;;6286269;28;20292;-68
2022/06/06 17:45:30;;;;;;;1.23;1.20;;;17.20;64.10;;;;;;6284891;28;20275;-67
2022/06/06 17:48:56;;;;;;;1.45;1.08;;;17.20;64.30;;;;;;6285335;28;20303;-67
2022/06/06 17:52:22;;;;;;;1.20;1.20;;;17.10;65.10;;;;;;6285167;28;20454;-68
2022/06/06 17:55:48;;;;;;;1.00;1.00;;;17.00;65.60;;;;;;6286244;28;20267;-67